Time;durP1;ratioP1;P1;durP2;ratioP2;P2;SDS_P1;SDS_P2;PMS_P1;PMS_P2;Temp;Humidity;BMP_temperature;BMP_pressure;BME280_temperature;BME280_humidity;BME280_pressure;Samples;Min_cycle;Max_cycle;Signal;HPM_P1;HPM_P2
2022/09/13 00:00:49;;;;;;;14.70;6.97;;;19.40;99.90;;;;;;5097004;28;20050;-70
2022/09/13 00:03:16;;;;;;;11.00;6.70;;;19.40;99.90;;;;;;5081892;28;20438;-70
2022/09/13 00:05:43;;;;;;;9.25;5.90;;;19.40;99.90;;;;;;5107502;28;20403;-70
2022/09/13 00:08:10;;;;;;;10.07;5.85;;;19.40;99.90;;;;;;5078011;28;20036;-69
2022/09/13 00:10:37;;;;;;;9.10;6.10;;;19.40;99.90;;;;;;5095215;28;20040;-69
2022/09/13 00:13:05;;;;;;;13.52;6.55;;;19.40;99.90;;;;;;5113082;28;20036;-70
2022/09/13 00:15:32;;;;;;;8.70;6.18;;;19.30;99.90;;;;;;5085640;28;20051;-70
2022/09/13 00:17:59;;;;;;;9.32;5.95;;;19.30;99.90;;;;;;5103477;28;20036;-70
2022/09/13 00:20:26;;;;;;;9.65;6.28;;;19.30;99.90;;;;;;5097640;28;20104;-70
2022/09/13 00:22:53;;;;;;;10.13;5.85;;;19.30;99.90;;;;;;5096732;28;20055;-70
2022/09/13 00:25:20;;;;;;;13.00;6.30;;;19.30;99.90;;;;;;5111120;28;20151;-70
2022/09/13 00:27:47;;;;;;;11.00;6.28;;;19.30;99.90;;;;;;5102628;28;20491;-69
2022/09/13 00:30:14;;;;;;;9.95;6.40;;;19.20;99.90;;;;;;5094128;28;20047;-70
2022/09/13 00:32:41;;;;;;;8.82;5.35;;;19.20;99.90;;;;;;5109889;28;20044;-70
2022/09/13 00:35:08;;;;;;;11.00;5.65;;;19.20;99.90;;;;;;5097814;28;20084;-70
2022/09/13 00:37:35;;;;;;;9.43;6.15;;;19.20;99.90;;;;;;5095604;28;20044;-70
2022/09/13 00:40:02;;;;;;;10.18;6.88;;;19.20;99.90;;;;;;5094809;28;20040;-69
2022/09/13 00:42:31;;;;;;;7.82;5.38;;;19.20;99.90;;;;;;5111713;28;20047;-70
2022/09/13 00:45:23;;;;;;;8.60;4.97;;;19.10;99.90;;;;;;5111804;28;20088;-70
2022/09/13 00:47:54;;;;;;;7.95;5.10;;;19.00;99.90;;;;;;5084906;28;20063;-70
2022/09/13 00:50:21;;;;;;;9.77;5.75;;;19.00;99.90;;;;;;5105524;28;20425;-70
2022/09/13 00:53:12;;;;;;;7.05;5.85;;;19.00;99.90;;;;;;5100580;28;20043;-70
2022/09/13 00:55:54;;;;;;;7.20;5.22;;;18.90;99.90;;;;;;5075243;28;20043;-70
2022/09/13 00:58:27;;;;;;;7.85;4.78;;;18.90;99.90;;;;;;5096316;28;20039;-69
2022/09/13 01:00:54;;;;;;;8.20;5.10;;;18.80;99.90;;;;;;5107535;28;20056;-70
2022/09/13 01:03:21;;;;;;;7.63;4.60;;;18.70;99.90;;;;;;5087611;28;20036;-69
2022/09/13 01:06:00;;;;;;;7.75;4.85;;;18.70;99.90;;;;;;5079336;28;20082;-70
2022/09/13 01:08:28;;;;;;;5.85;4.97;;;18.70;99.90;;;;;;5080704;28;20036;-70
2022/09/13 01:10:55;;;;;;;7.68;5.03;;;18.60;99.90;;;;;;5094746;28;20043;-70
2022/09/13 01:13:27;;;;;;;8.52;5.47;;;18.60;99.90;;;;;;5111570;28;20040;-70
2022/09/13 01:15:54;;;;;;;8.75;4.45;;;18.60;99.90;;;;;;5108085;28;20047;-70
2022/09/13 01:18:21;;;;;;;7.78;4.93;;;18.50;99.90;;;;;;5097902;28;20522;-70
2022/09/13 01:21:09;;;;;;;7.93;5.30;;;18.50;99.90;;;;;;5110265;28;20109;-71
2022/09/13 01:23:54;;;;;;;8.35;4.65;;;18.40;99.90;;;;;;5098466;28;20085;-70
2022/09/13 01:26:30;;;;;;;7.18;5.00;;;18.40;99.90;;;;;;5093766;28;20039;-70
2022/09/13 01:29:20;;;;;;;8.63;5.13;;;18.40;99.90;;;;;;5101920;28;20082;-70
2022/09/13 01:31:46;;;;;;;7.38;4.60;;;18.30;99.90;;;;;;5110964;28;20054;-70
2022/09/13 01:34:33;;;;;;;7.93;4.90;;;18.30;99.90;;;;;;5105351;28;20051;-70
2022/09/13 01:37:24;;;;;;;7.90;5.28;;;18.20;99.90;;;;;;5111118;28;20089;-69
2022/09/13 01:40:36;;;;;;;6.50;4.60;;;18.20;99.90;;;;;;5097651;28;20052;-70
2022/09/13 01:43:08;;;;;;;7.80;5.32;;;18.20;99.90;;;;;;5105130;28;20487;-70
2022/09/13 01:45:37;;;;;;;11.10;5.30;;;18.10;99.90;;;;;;5102854;28;20040;-70
2022/09/13 01:48:43;;;;;;;9.75;5.15;;;18.10;99.90;;;;;;5081439;28;20031;-70
2022/09/13 01:51:34;;;;;;;6.78;5.00;;;18.10;99.90;;;;;;5092252;28;20062;-70
2022/09/13 01:54:09;;;;;;;7.53;5.20;;;18.10;99.90;;;;;;5092214;28;20044;-69
2022/09/13 01:56:46;;;;;;;7.20;4.70;;;18.10;99.90;;;;;;5093290;28;20040;-70
2022/09/13 01:59:16;;;;;;;11.27;5.82;;;18.10;99.90;;;;;;5092593;28;20074;-70
2022/09/13 02:01:55;;;;;;;6.63;4.70;;;18.10;99.90;;;;;;5085988;28;20559;-70
2022/09/13 02:04:25;;;;;;;9.35;5.10;;;18.00;99.90;;;;;;5111612;28;20467;-70
2022/09/13 02:07:13;;;;;;;8.98;5.53;;;18.10;99.90;;;;;;5063272;28;20105;-69
2022/09/13 02:09:55;;;;;;;9.27;5.22;;;18.10;99.90;;;;;;5110251;28;20084;-69
2022/09/13 02:12:23;;;;;;;7.97;5.90;;;18.10;99.90;;;;;;5061968;28;20398;-70
2022/09/13 02:15:02;;;;;;;9.07;4.85;;;18.00;99.90;;;;;;5080355;28;20075;-70
2022/09/13 02:17:31;;;;;;;9.93;5.40;;;18.00;99.90;;;;;;5095194;28;20463;-70
2022/09/13 02:19:59;;;;;;;;;;;18.00;99.90;;;;;;5100629;28;20498;-70
2022/09/13 02:22:30;;;;;;;9.35;5.32;;;18.00;99.90;;;;;;5103214;28;20057;-70
2022/09/13 02:25:12;;;;;;;8.07;5.18;;;18.00;99.90;;;;;;5100012;28;20077;-70
2022/09/13 02:27:40;;;;;;;8.25;5.38;;;18.10;99.90;;;;;;5097556;28;20044;-69
2022/09/13 02:30:09;;;;;;;8.50;5.85;;;18.20;99.90;;;;;;5099764;28;20040;-69
2022/09/13 02:32:41;;;;;;;7.07;5.13;;;18.30;99.90;;;;;;5109412;28;20046;-70
2022/09/13 02:35:08;;;;;;;7.35;5.03;;;18.40;99.90;;;;;;5099575;28;20105;-70
2022/09/13 02:37:36;;;;;;;7.10;4.63;;;18.50;99.90;;;;;;5094638;28;20044;-69
2022/09/13 02:40:09;;;;;;;6.68;5.15;;;18.60;99.90;;;;;;5075464;28;20467;-70
2022/09/13 02:42:42;;;;;;;8.32;5.05;;;18.60;99.90;;;;;;5085651;28;20032;-70
2022/09/13 02:45:10;;;;;;;8.13;5.22;;;18.70;99.90;;;;;;5097500;28;20089;-70
2022/09/13 02:47:42;;;;;;;7.88;6.13;;;18.70;99.90;;;;;;5096177;28;20051;-70
2022/09/13 02:50:24;;;;;;;7.63;6.05;;;18.80;99.90;;;;;;5098147;28;20040;-70
2022/09/13 02:53:02;;;;;;;6.78;5.80;;;18.80;99.90;;;;;;5095820;28;20051;-69
2022/09/13 02:55:54;;;;;;;7.95;6.40;;;18.90;99.90;;;;;;5083316;28;20044;-70
2022/09/13 02:58:27;;;;;;;8.88;6.25;;;18.90;99.90;;;;;;5102542;28;20476;-70
2022/09/13 03:00:54;;;;;;;11.88;6.10;;;18.90;99.90;;;;;;5094845;28;20073;-70
2022/09/13 03:03:21;;;;;;;7.75;5.85;;;18.90;99.90;;;;;;5078997;28;20043;-70
2022/09/13 03:05:48;;;;;;;10.00;6.93;;;18.90;99.90;;;;;;5079157;28;20040;-70
2022/09/13 03:08:15;;;;;;;8.18;6.43;;;18.90;99.90;;;;;;5099876;28;20471;-69
2022/09/13 03:10:51;;;;;;;9.57;6.72;;;19.00;99.90;;;;;;5095546;28;20048;-70
2022/09/13 03:13:35;;;;;;;8.85;6.65;;;19.00;99.90;;;;;;5095660;28;20112;-70
2022/09/13 03:16:23;;;;;;;11.60;8.68;;;19.00;99.90;;;;;;5079666;28;20036;-70
2022/09/13 03:19:08;;;;;;;12.48;7.85;;;19.00;99.90;;;;;;5098681;28;20048;-70
2022/09/13 03:22:08;;;;;;;8.68;7.70;;;18.90;99.90;;;;;;5110286;28;20048;-70
2022/09/13 03:24:58;;;;;;;11.40;8.13;;;18.90;99.90;;;;;;5111333;28;20376;-70
2022/09/13 03:27:45;;;;;;;8.65;6.40;;;18.90;99.90;;;;;;5104230;28;20069;-70
2022/09/13 03:30:12;;;;;;;9.40;7.88;;;18.90;99.90;;;;;;5097562;28;20085;-69
2022/09/13 03:32:57;;;;;;;10.95;6.90;;;18.90;99.90;;;;;;5077465;28;20040;-70
2022/09/13 03:35:35;;;;;;;8.75;6.63;;;18.90;99.90;;;;;;5105560;28;20119;-70
2022/09/13 03:38:05;;;;;;;8.52;6.95;;;18.80;99.90;;;;;;5091381;28;20361;-70
2022/09/13 03:40:32;;;;;;;11.38;6.18;;;18.90;99.90;;;;;;5096589;28;20180;-69
2022/09/13 03:43:34;;;;;;;9.40;7.20;;;18.90;99.90;;;;;;5095338;28;20116;-70
2022/09/13 03:46:06;;;;;;;7.57;6.78;;;18.90;99.90;;;;;;5095025;28;20036;-70
2022/09/13 03:48:35;;;;;;;8.73;6.90;;;18.90;99.90;;;;;;5091004;28;20172;-70
2022/09/13 03:51:05;;;;;;;12.52;7.75;;;19.00;99.90;;;;;;5077685;28;20486;-70
2022/09/13 03:53:35;;;;;;;8.77;7.82;;;18.90;99.90;;;;;;5083165;28;20097;-70
2022/09/13 03:56:11;;;;;;;9.68;7.10;;;18.80;99.90;;;;;;5096480;28;20081;-70
2022/09/13 03:58:38;;;;;;;9.82;8.13;;;18.80;99.90;;;;;;5090075;28;20048;-70
2022/09/13 04:01:05;;;;;;;8.48;7.05;;;18.80;99.90;;;;;;5103826;28;20081;-70
2022/09/13 04:03:32;;;;;;;12.65;7.53;;;18.80;99.90;;;;;;5097431;28;20047;-69
2022/09/13 04:05:59;;;;;;;7.90;7.00;;;18.80;99.90;;;;;;5094715;28;20479;-70
2022/09/13 04:08:26;;;;;;;8.25;7.43;;;18.80;99.90;;;;;;5114707;28;20131;-70
2022/09/13 04:10:53;;;;;;;9.88;7.97;;;18.80;99.90;;;;;;5112386;28;20081;-70
2022/09/13 04:13:21;;;;;;;8.57;7.50;;;18.80;99.90;;;;;;5114987;28;20036;-70
2022/09/13 04:15:49;;;;;;;8.55;7.68;;;18.70;99.90;;;;;;5108945;28;20071;-69
2022/09/13 04:18:16;;;;;;;7.72;6.93;;;18.70;99.90;;;;;;5106816;28;20100;-70
2022/09/13 04:20:43;;;;;;;8.00;7.20;;;18.70;99.90;;;;;;5079764;28;20052;-70
2022/09/13 04:23:10;;;;;;;8.68;7.38;;;18.70;99.90;;;;;;5094127;28;20135;-70
2022/09/13 04:25:37;;;;;;;7.97;6.90;;;18.70;99.90;;;;;;5098532;28;20372;-69
2022/09/13 04:28:04;;;;;;;8.45;7.00;;;18.70;99.90;;;;;;5089108;28;20234;-69
2022/09/13 04:30:31;;;;;;;8.25;6.82;;;18.80;99.90;;;;;;5102878;28;20063;-69
2022/09/13 04:32:58;;;;;;;7.15;6.28;;;18.80;99.90;;;;;;5092517;28;20052;-69
2022/09/13 04:35:25;;;;;;;8.68;7.57;;;18.80;99.90;;;;;;5100917;28;20101;-69
2022/09/13 04:37:55;;;;;;;7.68;6.63;;;18.70;99.90;;;;;;5095256;28;20067;-70
2022/09/13 04:40:23;;;;;;;7.97;7.03;;;18.70;99.90;;;;;;5093979;28;20437;-70
2022/09/13 04:42:49;;;;;;;6.78;6.07;;;18.70;99.90;;;;;;5087008;28;20515;-70
2022/09/13 04:45:16;;;;;;;8.32;6.80;;;18.70;99.90;;;;;;5076011;28;20075;-70
2022/09/13 04:47:43;;;;;;;7.45;6.75;;;18.80;99.90;;;;;;5095161;28;20040;-70
2022/09/13 04:50:10;;;;;;;7.95;6.47;;;18.70;99.90;;;;;;5099280;28;20040;-69
2022/09/13 04:52:37;;;;;;;6.22;5.63;;;18.70;99.90;;;;;;5112295;28;20035;-69
2022/09/13 04:55:04;;;;;;;7.57;5.57;;;18.70;99.90;;;;;;5111360;28;20067;-70
2022/09/13 04:57:31;;;;;;;6.80;6.10;;;18.70;99.90;;;;;;5101030;28;20147;-70
2022/09/13 04:59:58;;;;;;;7.72;6.38;;;18.70;99.90;;;;;;5098583;28;20044;-69
2022/09/13 05:02:25;;;;;;;9.55;6.45;;;18.70;99.90;;;;;;5094018;28;20085;-70
2022/09/13 05:04:52;;;;;;;9.15;6.07;;;18.70;99.90;;;;;;5109060;28;20039;-69
2022/09/13 05:07:18;;;;;;;6.72;5.20;;;18.60;99.90;;;;;;5108747;28;20101;-70
2022/09/13 05:09:45;;;;;;;7.35;5.78;;;18.60;99.90;;;;;;5112035;28;20082;-69
2022/09/13 05:12:12;;;;;;;6.53;5.63;;;18.60;99.90;;;;;;5080692;28;20044;-69
2022/09/13 05:14:41;;;;;;;6.03;5.43;;;18.50;99.90;;;;;;5111809;27;20048;-70
2022/09/13 05:17:08;;;;;;;9.55;6.30;;;18.50;99.90;;;;;;5101065;28;20070;-70
2022/09/13 05:19:35;;;;;;;6.80;6.07;;;18.50;99.90;;;;;;5099356;28;20395;-69
2022/09/13 05:22:02;;;;;;;8.60;6.18;;;18.50;99.90;;;;;;5086926;28;20036;-70
2022/09/13 05:24:28;;;;;;;6.75;5.97;;;18.60;99.90;;;;;;5109598;28;20039;-70
2022/09/13 05:26:55;;;;;;;7.97;6.38;;;18.60;99.90;;;;;;5102663;28;20040;-70
2022/09/13 05:29:22;;;;;;;7.30;6.50;;;18.50;99.90;;;;;;5077903;28;20085;-70
2022/09/13 05:31:49;;;;;;;8.75;6.78;;;18.50;99.90;;;;;;5099360;28;20035;-70
2022/09/13 05:34:19;;;;;;;7.57;6.85;;;18.50;99.90;;;;;;5110336;28;20115;-69
2022/09/13 05:36:46;;;;;;;7.18;6.47;;;18.50;99.90;;;;;;5087370;28;20051;-70
2022/09/13 05:39:21;;;;;;;6.72;6.03;;;18.50;99.90;;;;;;5099958;28;20032;-70
2022/09/13 05:42:07;;;;;;;8.63;6.75;;;18.50;99.90;;;;;;5108422;28;20382;-70
2022/09/13 05:44:34;;;;;;;7.38;6.63;;;18.50;99.90;;;;;;5092551;28;20043;-70
2022/09/13 05:47:01;;;;;;;6.85;5.60;;;18.50;99.90;;;;;;5091732;28;20048;-70
2022/09/13 05:49:28;;;;;;;7.30;6.05;;;18.50;99.90;;;;;;5093847;28;20118;-70
2022/09/13 05:51:55;;;;;;;8.95;6.05;;;18.50;99.90;;;;;;5101805;28;20113;-70
2022/09/13 05:54:21;;;;;;;5.93;5.32;;;18.50;99.90;;;;;;5092948;28;20341;-70
2022/09/13 05:56:51;;;;;;;7.30;6.45;;;18.60;99.90;;;;;;5091847;28;20445;-71
2022/09/13 05:59:18;;;;;;;7.45;6.13;;;18.60;99.90;;;;;;5102322;28;20046;-70
2022/09/13 06:01:45;;;;;;;6.93;5.85;;;18.60;99.90;;;;;;5095148;28;20040;-70
2022/09/13 06:04:12;;;;;;;8.48;5.75;;;18.60;99.90;;;;;;5108587;28;20066;-69
2022/09/13 06:06:38;;;;;;;10.00;7.82;;;18.50;99.90;;;;;;5104824;28;20090;-70
2022/09/13 06:09:07;;;;;;;10.27;7.60;;;18.50;99.90;;;;;;5099997;28;20044;-69
2022/09/13 06:11:34;;;;;;;7.80;7.00;;;18.50;99.90;;;;;;5084131;28;20080;-69
2022/09/13 06:14:01;;;;;;;14.48;11.25;;;18.50;99.90;;;;;;5093852;28;20039;-71
2022/09/13 06:16:28;;;;;;;12.15;10.95;;;18.50;99.90;;;;;;5094916;28;20052;-69
2022/09/13 06:18:56;;;;;;;11.23;8.65;;;18.50;99.90;;;;;;5085254;28;20056;-69
2022/09/13 06:21:23;;;;;;;10.32;8.57;;;18.50;99.90;;;;;;5092100;28;20467;-74
2022/09/13 06:23:55;;;;;;;33.60;27.77;;;18.50;99.90;;;;;;5099943;28;20387;-74
2022/09/13 06:26:23;;;;;;;13.45;10.52;;;18.50;99.90;;;;;;5080890;28;20040;-71
2022/09/13 06:28:51;;;;;;;8.90;8.00;;;18.50;99.90;;;;;;5091693;28;20043;-69
2022/09/13 06:31:20;;;;;;;9.63;8.27;;;18.40;99.90;;;;;;5096779;28;20288;-67
2022/09/13 06:33:47;;;;;;;11.15;8.40;;;18.40;99.90;;;;;;5093538;28;20047;-70
2022/09/13 06:36:17;;;;;;;9.95;7.10;;;18.40;99.90;;;;;;5074163;28;20044;-70
2022/09/13 06:38:45;;;;;;;25.00;20.52;;;18.50;99.90;;;;;;5078635;28;20046;-70
2022/09/13 06:41:14;;;;;;;14.63;11.18;;;18.50;99.90;;;;;;5105145;28;20417;-70
2022/09/13 06:43:40;;;;;;;12.70;8.30;;;18.50;99.90;;;;;;5097220;28;20036;-69
2022/09/13 06:46:10;;;;;;;13.25;9.13;;;18.50;99.90;;;;;;5112523;28;20284;-70
2022/09/13 06:48:38;;;;;;;12.90;9.48;;;18.50;99.90;;;;;;5106001;28;20063;-75
2022/09/13 06:51:08;;;;;;;12.63;8.80;;;18.50;99.90;;;;;;5098073;28;20072;-70
2022/09/13 06:53:35;;;;;;;10.13;8.18;;;18.50;99.90;;;;;;5107004;28;20048;-77
2022/09/13 06:56:16;;;;;;;13.18;7.57;;;18.50;99.90;;;;;;5092790;28;20089;-72
2022/09/13 06:58:44;;;;;;;10.20;8.10;;;18.50;99.90;;;;;;5094283;28;20319;-75
2022/09/13 07:01:12;;;;;;;12.20;7.70;;;18.40;99.90;;;;;;5079685;28;20454;-72
2022/09/13 07:03:41;;;;;;;11.27;8.13;;;18.40;99.90;;;;;;5104396;28;20134;-72
2022/09/13 07:06:19;;;;;;;8.40;7.30;;;18.30;99.90;;;;;;5092267;28;20044;-72
2022/09/13 07:08:49;;;;;;;10.93;7.65;;;18.30;99.90;;;;;;5085101;28;20119;-71
2022/09/13 07:11:19;;;;;;;12.93;7.70;;;18.30;99.90;;;;;;5091256;28;20044;-71
2022/09/13 07:13:50;;;;;;;12.40;8.25;;;18.30;99.90;;;;;;5094469;28;20105;-71
2022/09/13 07:16:17;;;;;;;10.57;7.50;;;18.30;99.90;;;;;;5109349;28;20039;-73
2022/09/13 07:18:44;;;;;;;8.55;7.38;;;18.30;99.90;;;;;;5105114;28;20134;-77
2022/09/13 07:21:11;;;;;;;12.85;6.55;;;18.30;99.90;;;;;;5096598;28;20130;-72
2022/09/13 07:23:38;;;;;;;14.75;7.18;;;18.20;99.90;;;;;;5110525;28;20131;-72
2022/09/13 07:26:06;;;;;;;8.93;6.32;;;18.20;99.90;;;;;;5096118;28;20471;-70
2022/09/13 07:28:43;;;;;;;7.20;5.50;;;18.20;99.90;;;;;;5093501;28;20048;-69
2022/09/13 07:31:14;;;;;;;9.05;6.22;;;18.10;99.90;;;;;;5080386;28;20463;-70
2022/09/13 07:33:41;;;;;;;5.25;4.68;;;18.10;99.90;;;;;;5096122;28;20083;-71
2022/09/13 07:36:10;;;;;;;55.65;49.83;;;18.10;99.90;;;;;;5105511;28;20043;-73
2022/09/13 07:38:39;;;;;;;15.27;13.23;;;18.10;99.90;;;;;;5106731;28;20035;-69
2022/09/13 07:41:07;;;;;;;8.88;6.55;;;18.20;99.90;;;;;;5109779;28;20464;-73
2022/09/13 07:43:37;;;;;;;7.80;4.97;;;18.20;99.90;;;;;;5086729;28;20044;-72
2022/09/13 07:46:05;;;;;;;7.35;4.78;;;18.20;99.90;;;;;;5095464;28;20036;-73
2022/09/13 07:48:34;;;;;;;7.20;4.80;;;18.20;99.90;;;;;;5095236;28;20131;-73
2022/09/13 07:51:02;;;;;;;7.25;4.47;;;18.10;99.90;;;;;;5076239;28;20047;-68
2022/09/13 07:53:29;;;;;;;7.72;4.68;;;18.10;99.90;;;;;;5100956;28;20040;-74
2022/09/13 07:56:04;;;;;;;5.78;4.43;;;18.00;99.90;;;;;;5096107;28;20036;-68
2022/09/13 07:58:32;;;;;;;6.95;4.70;;;18.00;99.90;;;;;;5102395;28;20085;-71
2022/09/13 08:01:18;;;;;;;8.52;4.65;;;18.10;99.90;;;;;;5110958;28;20085;-69
2022/09/13 08:03:59;;;;;;;8.05;4.78;;;18.00;99.90;;;;;;5101266;28;20093;-68
2022/09/13 08:06:27;;;;;;;6.18;4.00;;;17.90;99.90;;;;;;5071484;28;20047;-71
2022/09/13 08:08:55;;;;;;;7.55;4.40;;;17.90;99.90;;;;;;5072816;28;20158;-74
2022/09/13 08:11:22;;;;;;;9.52;5.03;;;17.90;99.90;;;;;;5087693;28;20101;-72
2022/09/13 08:13:50;;;;;;;5.75;4.60;;;17.90;99.90;;;;;;5102560;28;20048;-73
2022/09/13 08:16:18;;;;;;;8.73;6.57;;;17.90;99.90;;;;;;5109570;28;20483;-69
2022/09/13 08:18:52;;;;;;;8.13;4.97;;;17.80;99.90;;;;;;5093881;28;20483;-69
2022/09/13 08:21:19;;;;;;;6.85;4.05;;;17.80;99.90;;;;;;5093412;28;20415;-76
2022/09/13 08:23:46;;;;;;;10.23;5.18;;;17.80;99.90;;;;;;5095845;28;20040;-72
2022/09/13 08:26:13;;;;;;;11.20;5.95;;;17.70;99.90;;;;;;5075906;28;20364;-75
2022/09/13 08:28:40;;;;;;;8.70;5.38;;;17.60;99.90;;;;;;5093629;28;20047;-73
2022/09/13 08:31:12;;;;;;;9.35;6.45;;;17.60;99.90;;;;;;5093676;28;20376;-70
2022/09/13 08:33:42;;;;;;;8.57;6.60;;;17.60;99.90;;;;;;5094102;28;20085;-72
2022/09/13 08:36:12;;;;;;;8.32;6.20;;;17.70;99.90;;;;;;5098105;28;20031;-69
2022/09/13 08:38:44;;;;;;;11.07;6.70;;;17.70;99.90;;;;;;5103590;28;20035;-70
2022/09/13 08:41:38;;;;;;;10.90;5.90;;;17.70;99.90;;;;;;5105497;28;20098;-78
2022/09/13 08:44:22;;;;;;;8.85;5.55;;;17.90;99.90;;;;;;5103675;28;20043;-76
2022/09/13 08:46:49;;;;;;;11.07;6.85;;;18.00;99.90;;;;;;5112048;28;20382;-72
2022/09/13 08:49:18;;;;;;;10.93;6.90;;;18.00;99.90;;;;;;5085465;28;20074;-80
2022/09/13 08:51:47;;;;;;;11.07;6.75;;;18.10;99.90;;;;;;5106626;28;20039;-74
2022/09/13 08:54:15;;;;;;;11.00;7.47;;;18.20;99.90;;;;;;5099949;28;20043;-76
2022/09/13 08:56:50;;;;;;;13.03;9.07;;;18.20;99.90;;;;;;5099403;28;20119;-82
2022/09/13 08:59:34;;;;;;;11.55;8.50;;;18.20;99.90;;;;;;5103256;28;20048;-76
2022/09/13 09:02:28;;;;;;;13.95;8.40;;;18.30;99.90;;;;;;5101873;28;20044;-70
2022/09/13 09:05:03;;;;;;;14.38;10.48;;;18.30;99.90;;;;;;5047528;28;20044;-72
2022/09/13 09:07:42;;;;;;;18.38;10.00;;;18.30;99.90;;;;;;5085052;28;20044;-71
2022/09/13 09:10:18;;;;;;;16.30;10.05;;;18.30;99.90;;;;;;5100018;28;20470;-81
2022/09/13 09:12:49;;;;;;;13.70;9.52;;;18.30;99.90;;;;;;5074985;28;20048;-70
2022/09/13 09:15:21;;;;;;;16.38;9.40;;;18.50;99.90;;;;;;5085105;28;20047;-77
2022/09/13 09:18:01;;;;;;;18.17;9.77;;;18.70;99.90;;;;;;5100252;28;20043;-75
2022/09/13 09:20:37;;;;;;;19.42;10.45;;;18.70;99.90;;;;;;5096353;28;20040;-74
2022/09/13 09:23:15;;;;;;;19.40;9.98;;;18.70;99.90;;;;;;5086824;28;20062;-68
2022/09/13 09:25:47;;;;;;;13.55;8.25;;;18.70;99.90;;;;;;5063631;28;20044;-69
2022/09/13 09:28:16;;;;;;;15.50;8.07;;;18.70;99.90;;;;;;5086702;28;20040;-74
2022/09/13 09:30:55;;;;;;;14.95;8.45;;;18.60;99.90;;;;;;5062928;28;20040;-71
2022/09/13 09:33:51;;;;;;;;;;;18.50;99.90;;;;;;5110318;28;20390;-76
2022/09/13 09:36:45;;;;;;;13.07;8.07;;;18.40;99.90;;;;;;5023092;28;19964;-83
2022/09/13 09:39:14;;;;;;;15.13;8.77;;;18.40;99.90;;;;;;5078823;28;20484;-71
2022/09/13 09:41:44;;;;;;;13.07;8.23;;;18.40;99.90;;;;;;5083018;28;20482;-72
2022/09/13 09:44:22;;;;;;;12.93;7.85;;;18.50;99.90;;;;;;5093543;28;20043;-69
2022/09/13 09:47:01;;;;;;;10.68;7.75;;;18.30;99.90;;;;;;5105400;28;20043;-71
2022/09/13 09:53:01;;;;;;;12.88;7.20;;;18.10;99.90;;;;;;5097626;28;19915;-75
2022/09/13 09:55:52;;;;;;;12.95;7.65;;;18.00;99.90;;;;;;5094747;28;20478;-81
2022/09/13 09:58:36;;;;;;;15.25;7.97;;;18.00;99.90;;;;;;5085929;28;20043;-82
2022/09/13 10:01:04;;;;;;;15.68;7.40;;;18.00;99.90;;;;;;5116706;27;20044;-72
2022/09/13 10:03:36;;;;;;;12.75;7.15;;;18.10;99.90;;;;;;5103686;28;20113;-74
2022/09/13 10:06:07;;;;;;;13.02;7.03;;;18.00;99.90;;;;;;5067158;28;20043;-72
2022/09/13 10:08:36;;;;;;;9.52;7.10;;;18.00;99.90;;;;;;5092304;28;20035;-76
2022/09/13 10:11:03;;;;;;;24.67;6.17;;;17.90;99.90;;;;;;5089892;28;20101;-73
2022/09/13 10:13:30;;;;;;;10.02;6.18;;;17.90;99.90;;;;;;5093682;28;20082;-71
2022/09/13 10:16:24;;;;;;;11.95;6.97;;;17.90;99.90;;;;;;5105624;28;20040;-77
2022/09/13 10:18:51;;;;;;;19.65;7.20;;;18.00;99.90;;;;;;5098635;28;20097;-80
2022/09/13 10:21:18;;;;;;;7.53;6.60;;;18.00;99.90;;;;;;5093369;28;20495;-71
2022/09/13 10:23:49;;;;;;;10.05;6.88;;;17.90;99.90;;;;;;5096390;28;20039;-79
2022/09/13 10:26:20;;;;;;;11.65;7.03;;;17.90;99.90;;;;;;5107681;28;20036;-81
2022/09/13 10:29:01;;;;;;;10.10;7.45;;;17.90;99.90;;;;;;5089715;28;20040;-78
2022/09/13 10:31:30;;;;;;;17.42;8.43;;;17.90;99.90;;;;;;5105476;28;20100;-72
2022/09/13 10:34:01;;;;;;;17.57;8.67;;;17.90;99.90;;;;;;5080317;28;20441;-68
2022/09/13 10:36:33;;;;;;;9.00;7.45;;;18.00;99.90;;;;;;5099279;28;20048;-69
2022/09/13 10:39:19;;;;;;;9.15;6.82;;;18.00;99.90;;;;;;5092882;28;20411;-69
2022/09/13 10:42:07;;;;;;;9.45;7.38;;;18.00;99.90;;;;;;5069722;28;20035;-69
2022/09/13 10:44:44;;;;;;;9.82;8.02;;;18.00;99.90;;;;;;5106766;28;20044;-70
2022/09/13 10:47:34;;;;;;;9.60;7.65;;;18.00;99.90;;;;;;5105159;28;20040;-68
2022/09/13 10:50:24;;;;;;;15.60;8.13;;;18.00;99.90;;;;;;5094205;28;20047;-68
2022/09/13 10:52:55;;;;;;;7.70;6.82;;;17.90;99.90;;;;;;5099848;28;20054;-69
2022/09/13 10:55:27;;;;;;;24.42;16.65;;;17.90;99.90;;;;;;5088874;28;20062;-69
2022/09/13 10:58:12;;;;;;;10.93;8.77;;;17.90;99.90;;;;;;5098954;28;20040;-71
2022/09/13 11:01:04;;;;;;;10.32;8.55;;;17.90;99.90;;;;;;5083368;28;20047;-75
2022/09/13 11:03:51;;;;;;;16.75;10.35;;;17.90;99.90;;;;;;5092490;28;20040;-68
2022/09/13 11:06:43;;;;;;;17.80;10.73;;;18.00;99.90;;;;;;5102404;28;20494;-70
2022/09/13 11:09:43;;;;;;;16.20;8.95;;;18.10;99.90;;;;;;5094602;28;20039;-74
2022/09/13 11:12:35;;;;;;;15.20;10.32;;;18.10;99.90;;;;;;5066612;28;20044;-71
2022/09/13 11:15:29;;;;;;;14.25;9.30;;;18.20;99.90;;;;;;5096870;28;20063;-70
2022/09/13 11:18:13;;;;;;;26.23;12.45;;;18.20;99.90;;;;;;5102085;28;20043;-73
2022/09/13 11:21:02;;;;;;;16.88;10.13;;;18.30;99.90;;;;;;5094609;28;20538;-71
2022/09/13 11:23:32;;;;;;;;;;;18.40;99.90;;;;;;5103028;28;20536;-75
2022/09/13 11:26:11;;;;;;;15.77;10.70;;;18.60;99.90;;;;;;5098623;28;20337;-69
2022/09/13 11:29:08;;;;;;;12.93;9.80;;;18.60;99.90;;;;;;5094104;28;20046;-70
2022/09/13 11:32:24;;;;;;;16.63;11.52;;;18.70;99.90;;;;;;5100999;28;20040;-69
2022/09/13 11:35:16;;;;;;;13.00;10.32;;;18.60;99.90;;;;;;5083158;28;20040;-69
2022/09/13 11:37:49;;;;;;;17.10;11.80;;;18.60;99.90;;;;;;5101161;28;20044;-69
2022/09/13 11:40:28;;;;;;;15.63;11.68;;;18.60;99.90;;;;;;5109851;28;20040;-69
2022/09/13 11:43:04;;;;;;;23.52;12.38;;;18.70;99.90;;;;;;5111932;28;20039;-69
2022/09/13 11:46:00;;;;;;;18.25;11.85;;;18.70;99.90;;;;;;5097272;28;20085;-69
2022/09/13 11:48:53;;;;;;;14.68;12.65;;;18.70;99.90;;;;;;5086996;28;20052;-70
2022/09/13 11:51:32;;;;;;;13.48;12.07;;;18.70;99.90;;;;;;5063854;28;20072;-70
2022/09/13 11:54:14;;;;;;;15.77;12.38;;;18.70;99.90;;;;;;5094644;28;20526;-69
2022/09/13 11:56:43;;;;;;;23.58;12.73;;;18.70;99.90;;;;;;5099390;28;20419;-67
2022/09/13 11:59:33;;;;;;;58.63;47.83;;;18.70;99.90;;;;;;5102063;28;20092;-67
2022/09/13 12:02:08;;;;;;;16.17;13.95;;;18.70;99.90;;;;;;5109073;28;20067;-74
2022/09/13 12:04:45;;;;;;;15.98;12.30;;;18.80;99.90;;;;;;5083599;28;20055;-75
2022/09/13 12:07:36;;;;;;;14.07;10.48;;;18.90;99.90;;;;;;5096054;28;20530;-73
2022/09/13 12:10:14;;;;;;;13.25;11.68;;;18.90;99.90;;;;;;5074608;28;20044;-72
2022/09/13 12:12:41;;;;;;;11.65;10.45;;;19.00;99.90;;;;;;5087259;28;20044;-73
2022/09/13 12:15:14;;;;;;;16.83;11.00;;;19.00;99.90;;;;;;5105955;28;20249;-71
2022/09/13 12:17:44;;;;;;;16.15;10.93;;;19.00;99.90;;;;;;5085082;28;20047;-71
2022/09/13 12:20:19;;;;;;;23.83;12.98;;;19.00;99.90;;;;;;5094666;28;20043;-74
2022/09/13 12:22:46;;;;;;;18.30;12.13;;;19.10;99.90;;;;;;5106977;28;20403;-72
2022/09/13 12:25:19;;;;;;;17.50;11.70;;;19.20;99.90;;;;;;5097227;28;20051;-72
2022/09/13 12:28:09;;;;;;;17.35;11.98;;;19.20;99.90;;;;;;5083992;28;20039;-77
2022/09/13 12:30:43;;;;;;;13.88;10.93;;;19.20;99.90;;;;;;5079240;28;20055;-73
2022/09/13 12:33:14;;;;;;;13.18;11.00;;;19.20;99.90;;;;;;5090740;28;20089;-70
2022/09/13 12:36:00;;;;;;;14.07;11.27;;;19.20;99.90;;;;;;5109118;28;20486;-70
2022/09/13 12:38:41;;;;;;;17.60;12.88;;;19.20;99.90;;;;;;5108076;28;20098;-70
2022/09/13 12:41:20;;;;;;;14.40;10.55;;;19.20;99.90;;;;;;5093975;28;20105;-73
2022/09/13 12:43:54;;;;;;;;;;;19.20;99.90;;;;;;5087136;28;20036;-71
2022/09/13 12:46:40;;;;;;;13.50;10.68;;;19.20;99.90;;;;;;5107790;28;19915;-70
2022/09/13 12:49:44;;;;;;;15.77;10.07;;;19.10;99.90;;;;;;5090905;28;20040;-74
2022/09/13 12:52:26;;;;;;;12.57;9.00;;;19.20;99.90;;;;;;5040964;28;20040;-72
2022/09/13 12:55:21;;;;;;;14.65;9.93;;;19.30;99.90;;;;;;5090083;28;20043;-72
2022/09/13 12:58:25;;;;;;;9.65;8.65;;;19.30;99.90;;;;;;5092454;28;20159;-73
2022/09/13 13:01:08;;;;;;;11.48;9.70;;;19.40;99.90;;;;;;5109902;28;20043;-70
2022/09/13 13:03:57;;;;;;;11.20;9.40;;;19.40;99.90;;;;;;5098294;28;20051;-70
2022/09/13 13:06:37;;;;;;;125.68;112.00;;;19.40;99.90;;;;;;5111887;28;20116;-70
2022/09/13 13:09:24;;;;;;;19.38;14.50;;;19.50;99.90;;;;;;5106925;28;20063;-69
2022/09/13 13:11:54;;;;;;;21.52;11.32;;;19.50;99.90;;;;;;5092055;28;20032;-68
2022/09/13 13:14:45;;;;;;;14.98;10.25;;;19.50;99.90;;;;;;5085464;28;20410;-69
2022/09/13 13:17:34;;;;;;;13.82;8.95;;;19.50;99.90;;;;;;5098768;28;20047;-69
2022/09/13 13:20:41;;;;;;;12.52;8.40;;;19.40;99.90;;;;;;5092938;28;20052;-69